UUOK

Details ICAO UUOK (URS)
Name Kursk Vostochny
Region Russia
Timezone Europe/Moscow (UTC+3.0)
Plans Departing 144
Arriving 137
Stats Elevation 686 ft / 209 m (AMSL)
Location 51.750600° 36.295800°
Runways 1
Magnetic Variation 9.895° E
Sunrise 2024-03-04 04:14:53 UTC / 2024-03-04 07:14:53 Local
Sunset 2024-03-04 15:21:03 UTC / 2024-03-04 18:21:03 Local
Advertisement - Login to hide

Runways

ID Width Length Bearing (true/mag) Surface Threshold Overrun Markings Lighting
12 131 ft / 40 m 8,187 ft / 2,495 m 123.96° / 114.06° CONCRETE 0 ft / 0 m 0 ft / 0 m PREC-APP EDGE THRESHOLD SALS
30 131 ft / 40 m 8,187 ft / 2,495 m 303.98° / 294.09° CONCRETE 0 ft / 0 m 0 ft / 0 m PREC-APP EDGE THRESHOLD SALS

Approach Navaids

Runway Type Ident Frequency Range Bearing (true/mag) Slope Elevation
30 LOC-ILS IWA 110.30 MHz 18 nm / 33 km 303.97° / 294.07° - 686 ft / 209 m (AMSL)
30 GS IWA 110.30 MHz 10 nm / 19 km 303.97° / 294.07° 3.00° 686 ft / 209 m (AMSL)

Map

Weather


0- 5 10 15 20 25 30 35+ Temperature / °C

Clouds and Precipitation
Forecast for 2024-03-04 06:00 UTC. Updated 4 hours ago

Ground ~20,000 ft ~40,000 ft Winds

METAR

UUOK 040800Z 13006MPS 9999 FEW009 M01/M04 Q1024 R12/090050 NOSIG RMK QFE750/1000

TAF

Not found

Frequencies

Tower 131.50 MHz Kursk Start
Approach 131.50 MHz Kursk Approach
Ground 120.60 MHz Kursk Vyshka
Recorded 127.80 MHz Kursk Meteo
Warning: Do not use this data for real-world aviation or navigation. No guarantee of current accuracy is given.